Time;durP1;ratioP1;P1;durP2;ratioP2;P2;SDS_P1;SDS_P2;PMS_P1;PMS_P2;Temp;Humidity;BMP_temperature;BMP_pressure;BME280_temperature;BME280_humidity;BME280_pressure;Samples;Min_cycle;Max_cycle;Signal;HPM_P1;HPM_P2
2022/08/08 00:00:42;;;;;;;;;;;;;;;;;;4947705;28;19919;-82
2022/08/08 00:03:07;;;;;;;;;;;;;;;;;;4940646;28;19942;-82
2022/08/08 00:05:33;;;;;;;;;;;;;;;;;;4941752;28;19997;-82
2022/08/08 00:07:58;;;;;;;;;;;;;;;;;;4941199;28;19922;-83
2022/08/08 00:10:23;;;;;;;;;;;;;;;;;;4946522;28;19994;-82
2022/08/08 00:12:48;;;;;;;;;;;;;;;;;;4947902;28;19914;-82
2022/08/08 00:15:13;;;;;;;;;;;;;;;;;;4946308;29;19914;-82
2022/08/08 00:17:38;;;;;;;;;;;;;;;;;;4945835;28;21738;-82
2022/08/08 00:20:04;;;;;;;;;;;;;;;;;;4968461;28;19921;-82
2022/08/08 00:22:29;;;;;;;;;;;;;;;;;;4956187;28;19970;-82
2022/08/08 00:24:54;;;;;;;;;;;;;;;;;;4951590;28;20016;-82
2022/08/08 00:27:19;;;;;;;;;;;;;;;;;;4957638;28;19921;-82
2022/08/08 00:29:45;;;;;;;;;;;;;;;;;;4956728;28;19918;-82
2022/08/08 00:32:10;;;;;;;;;;;;;;;;;;4954046;28;19914;-82
2022/08/08 00:37:19;;;;;;;;;;;;;;;;;;4951178;28;19930;-82
2022/08/08 00:39:44;;;;;;;;;;;;;;;;;;4950319;28;20393;-82
2022/08/08 00:42:09;;;;;;;;;;;;;;;;;;4950677;28;20057;-81
2022/08/08 00:44:34;;;;;;;;;;;;;;;;;;4946906;29;19910;-82
2022/08/08 00:47:00;;;;;;;;;;;;;;;;;;4961583;28;19962;-82
2022/08/08 00:49:25;;;;;;;;;;;;;;;;;;4963048;28;19922;-82
2022/08/08 00:51:50;;;;;;;;;;;;;;;;;;4954963;28;20320;-81
2022/08/08 00:54:15;;;;;;;;;;;;;;;;;;4952388;28;19925;-82
2022/08/08 00:56:40;;;;;;;;;;;;;;;;;;4955033;28;19922;-82
2022/08/08 00:59:05;;;;;;;;;;;;;;;;;;4952000;28;19914;-82
2022/08/08 01:01:31;;;;;;;;;;;;;;;;;;4958919;28;19918;-82
2022/08/08 01:03:56;;;;;;;;;;;;;;;;;;4958109;28;19918;-82
2022/08/08 01:06:21;;;;;;;;;;;;;;;;;;4954118;28;19914;-82
2022/08/08 01:08:46;;;;;;;;;;;;;;;;;;4955550;28;19926;-82
2022/08/08 01:11:11;;;;;;;;;;;;;;;;;;4953633;28;19993;-82
2022/08/08 01:13:37;;;;;;;;;;;;;;;;;;4950250;28;19922;-82
2022/08/08 01:16:02;;;;;;;;;;;;;;;;;;4955886;28;19946;-82
2022/08/08 01:18:27;;;;;;;;;;;;;;;;;;4959659;28;20407;-82
2022/08/08 01:20:52;;;;;;;;;;;;;;;;;;4955782;28;19950;-82
2022/08/08 01:23:17;;;;;;;;;;;;;;;;;;4954251;28;19961;-82
2022/08/08 01:25:43;;;;;;;;;;;;;;;;;;4945340;28;19954;-82
2022/08/08 01:28:08;;;;;;;;;;;;;;;;;;4949793;28;19919;-82
2022/08/08 01:30:33;;;;;;;;;;;;;;;;;;4953493;28;19918;-81
2022/08/08 01:32:58;;;;;;;;;;;;;;;;;;4951557;28;19921;-82
2022/08/08 01:35:23;;;;;;;;;;;;;;;;;;4948856;28;19914;-82
2022/08/08 01:37:48;;;;;;;;;;;;;;;;;;4958973;28;19915;-81
2022/08/08 01:40:14;;;;;;;;;;;;;;;;;;4950316;28;20010;-82
2022/08/08 01:42:39;;;;;;;;;;;;;;;;;;4951787;28;19922;-82
2022/08/08 01:45:05;;;;;;;;;;;;;;;;;;4956192;28;19914;-81
2022/08/08 01:47:30;;;;;;;;;;;;;;;;;;4949505;28;19918;-81
2022/08/08 01:49:55;;;;;;;;;;;;;;;;;;4951349;29;19919;-81
2022/08/08 01:52:20;;;;;;;;;;;;;;;;;;4954397;28;19915;-82
2022/08/08 01:54:45;;;;;;;;;;;;;;;;;;4952223;28;20001;-82
2022/08/08 01:57:11;;;;;;;;;;;;;;;;;;4951030;28;19925;-82
2022/08/08 01:59:36;;;;;;;;;;;;;;;;;;4950706;28;19945;-81
2022/08/08 02:02:01;;;;;;;;;;;;;;;;;;4957478;28;20031;-82
2022/08/08 02:04:26;;;;;;;;;;;;;;;;;;4948991;28;19921;-81
2022/08/08 02:06:52;;;;;;;;;;;;;;;;;;4948814;28;20304;-81
2022/08/08 02:09:17;;;;;;;;;;;;;;;;;;4951321;28;19918;-81
2022/08/08 02:11:42;;;;;;;;;;;;;;;;;;4947151;28;19923;-82
2022/08/08 02:14:07;;;;;;;;;;;;;;;;;;4951304;28;20355;-81
2022/08/08 02:16:32;;;;;;;;;;;;;;;;;;4957050;28;19914;-82
2022/08/08 02:18:57;;;;;;;;;;;;;;;;;;4956531;28;19961;-81
2022/08/08 02:24:06;;;;;;;;;;;;;;;;;;4953903;28;19937;-83
2022/08/08 02:26:31;;;;;;;;;;;;;;;;;;4950075;28;20005;-82
2022/08/08 02:28:57;;;;;;;;;;;;;;;;;;4953081;28;19918;-82
2022/08/08 02:31:22;;;;;;;;;;;;;;;;;;4947847;28;20471;-82
2022/08/08 02:33:47;;;;;;;;;;;;;;;;;;4957684;28;19914;-81
2022/08/08 02:36:12;;;;;;;;;;;;;;;;;;4955699;28;20547;-81
2022/08/08 02:38:37;;;;;;;;;;;;;;;;;;4954754;28;19930;-82
2022/08/08 02:41:02;;;;;;;;;;;;;;;;;;4948961;28;19922;-82
2022/08/08 02:43:28;;;;;;;;;;;;;;;;;;4950237;28;19925;-81
2022/08/08 02:45:53;;;;;;;;;;;;;;;;;;4943800;28;19993;-82
2022/08/08 02:48:18;;;;;;;;;;;;;;;;;;4949661;28;19944;-82
2022/08/08 02:50:43;;;;;;;;;;;;;;;;;;4945580;28;19953;-82
2022/08/08 02:53:08;;;;;;;;;;;;;;;;;;4953263;28;19914;-82
2022/08/08 02:55:33;;;;;;;;;;;;;;;;;;4951860;28;19918;-81
2022/08/08 02:57:59;;;;;;;;;;;;;;;;;;4962418;28;20002;-81
2022/08/08 03:00:24;;;;;;;;;;;;;;;;;;4952562;28;19965;-82
2022/08/08 03:02:49;;;;;;;;;;;;;;;;;;4951881;28;19946;-82
2022/08/08 03:05:14;;;;;;;;;;;;;;;;;;4944825;28;20435;-81
2022/08/08 03:07:39;;;;;;;;;;;;;;;;;;4943268;28;19919;-81
2022/08/08 03:10:04;;;;;;;;;;;;;;;;;;4945768;28;20360;-81
2022/08/08 03:12:30;;;;;;;;;;;;;;;;;;4948743;28;19969;-82
2022/08/08 03:14:55;;;;;;;;;;;;;;;;;;4952108;28;19930;-81
2022/08/08 03:17:20;;;;;;;;;;;;;;;;;;4944472;28;19998;-82
2022/08/08 03:19:45;;;;;;;;;;;;;;;;;;4947582;28;19918;-83
2022/08/08 03:22:10;;;;;;;;;;;;;;;;;;4944992;28;20391;-82
2022/08/08 03:24:35;;;;;;;;;;;;;;;;;;4947287;28;19922;-81
2022/08/08 03:27:01;;;;;;;;;;;;;;;;;;4953698;28;20615;-82
2022/08/08 03:29:26;;;;;;;;;;;;;;;;;;4950463;28;19918;-81
2022/08/08 03:34:35;;;;;;;;;;;;;;;;;;4944342;28;19981;-82
2022/08/08 03:37:00;;;;;;;;;;;;;;;;;;4947940;28;19915;-82
2022/08/08 03:39:25;;;;;;;;;;;;;;;;;;4953325;29;19974;-81
2022/08/08 03:41:50;;;;;;;;;;;;;;;;;;4949653;28;19957;-82
2022/08/08 03:44:15;;;;;;;;;;;;;;;;;;4953825;28;19910;-82
2022/08/08 03:46:40;;;;;;;;;;;;;;;;;;4955991;28;19947;-82
2022/08/08 03:49:06;;;;;;;;;;;;;;;;;;4951305;28;19914;-82
2022/08/08 03:51:31;;;;;;;;;;;;;;;;;;4951078;28;19926;-83
2022/08/08 03:53:56;;;;;;;;;;;;;;;;;;4952230;28;19915;-82
2022/08/08 03:56:21;;;;;;;;;;;;;;;;;;4953043;28;20013;-83
2022/08/08 03:58:46;;;;;;;;;;;;;;;;;;4953858;28;20411;-83
2022/08/08 04:01:11;;;;;;;;;;;;;;;;;;4958811;28;20154;-82
2022/08/08 04:03:37;;;;;;;;;;;;;;;;;;4949188;28;20017;-83
2022/08/08 04:06:02;;;;;;;;;;;;;;;;;;4952279;28;20012;-82
2022/08/08 04:08:27;;;;;;;;;;;;;;;;;;4955496;28;19918;-83
2022/08/08 04:10:52;;;;;;;;;;;;;;;;;;4953607;28;19954;-83
2022/08/08 04:13:19;;;;;;;;;;;;;;;;;;4954527;28;19918;-83
2022/08/08 04:15:44;;;;;;;;;;;;;;;;;;4951443;28;19950;-83
2022/08/08 04:18:09;;;;;;;;;;;;;;;;;;4951820;28;20440;-82
2022/08/08 04:20:35;;;;;;;;;;;;;;;;;;4956493;28;19966;-83
2022/08/08 04:23:00;;;;;;;;;;;;;;;;;;4954654;28;19914;-84
2022/08/08 04:25:25;;;;;;;;;;;;;;;;;;4954032;28;19911;-82
2022/08/08 04:27:50;;;;;;;;;;;;;;;;;;4958146;28;19926;-82
2022/08/08 04:30:15;;;;;;;;;;;;;;;;;;4951990;28;20383;-82
2022/08/08 04:32:40;;;;;;;;;;;;;;;;;;4955153;28;19919;-82
2022/08/08 04:35:06;;;;;;;;;;;;;;;;;;4953112;28;19997;-82
2022/08/08 04:37:31;;;;;;;;;;;;;;;;;;4954778;28;19921;-82
2022/08/08 04:39:56;;;;;;;;;;;;;;;;;;4961026;28;19922;-82
2022/08/08 04:42:21;;;;;;;;;;;;;;;;;;4954638;28;19915;-82
2022/08/08 04:44:47;;;;;;;;;;;;;;;;;;4952312;28;19974;-82
2022/08/08 04:47:12;;;;;;;;;;;;;;;;;;4950578;28;19970;-83
2022/08/08 04:49:37;;;;;;;;;;;;;;;;;;4955806;28;19999;-81
2022/08/08 04:52:02;;;;;;;;;;;;;;;;;;4950865;28;19910;-82
2022/08/08 04:54:27;;;;;;;;;;;;;;;;;;4953877;28;19923;-82
2022/08/08 04:56:52;;;;;;;;;;;;;;;;;;4955120;28;19911;-82
2022/08/08 04:59:18;;;;;;;;;;;;;;;;;;4954013;28;20053;-82
2022/08/08 05:04:12;;;;;;;;;;;;;;;;;;4972927;28;20350;-81
2022/08/08 05:06:37;;;;;;;;;;;;;;;;;;4968115;28;19914;-80
2022/08/08 05:09:02;;;;;;;;;;;;;;;;;;4974819;28;19918;-82
2022/08/08 05:11:27;;;;;;;;;;;;;;;;;;4967643;28;19914;-80
2022/08/08 05:13:53;;;;;;;;;;;;;;;;;;4967411;28;19930;-81
2022/08/08 05:16:18;;;;;;;;;;;;;;;;;;4971053;28;20039;-81
2022/08/08 05:18:44;;;;;;;;;;;;;;;;;;4971412;28;20025;-81
2022/08/08 05:21:09;;;;;;;;;;;;;;;;;;4964774;28;19921;-80
2022/08/08 05:23:34;;;;;;;;;;;;;;;;;;4969058;28;19954;-81
2022/08/08 05:25:59;;;;;;;;;;;;;;;;;;4968553;28;19921;-81
2022/08/08 05:28:24;;;;;;;;;;;;;;;;;;4967594;28;19919;-82
2022/08/08 05:30:49;;;;;;;;;;;;;;;;;;4970180;28;19924;-81
2022/08/08 05:33:14;;;;;;;;;;;;;;;;;;4963438;28;19918;-82
2022/08/08 05:35:40;;;;;;;;;;;;;;;;;;4967709;28;19928;-81
2022/08/08 05:38:05;;;;;;;;;;;;;;;;;;4972578;28;19925;-82
2022/08/08 05:40:30;;;;;;;;;;;;;;;;;;4966882;28;19914;-83
2022/08/08 05:42:55;;;;;;;;;;;;;;;;;;4970330;28;19914;-83
2022/08/08 05:45:20;;;;;;;;;;;;;;;;;;4963597;28;19914;-83
2022/08/08 05:47:46;;;;;;;;;;;;;;;;;;4969130;28;19914;-83
2022/08/08 05:50:11;;;;;;;;;;;;;;;;;;4965883;28;20352;-83
2022/08/08 05:55:05;;;;;;;;;;;;;;;;;;4967628;28;20380;-82
2022/08/08 05:57:30;;;;;;;;;;;;;;;;;;4965901;28;19921;-83
2022/08/08 05:59:55;;;;;;;;;;;;;;;;;;4976730;28;19913;-83
2022/08/08 06:05:04;;;;;;;;;;;;;;;;;;4965248;28;19921;-83
2022/08/08 06:07:29;;;;;;;;;;;;;;;;;;4963242;28;19914;-83
2022/08/08 06:09:55;;;;;;;;;;;;;;;;;;4966459;28;20017;-83
2022/08/08 06:12:20;;;;;;;;;;;;;;;;;;4965165;28;20327;-83
2022/08/08 06:14:45;;;;;;;;;;;;;;;;;;4962258;28;19937;-83
2022/08/08 06:17:10;;;;;;;;;;;;;;;;;;4970729;28;19992;-83
2022/08/08 06:19:35;;;;;;;;;;;;;;;;;;4965530;28;20299;-82
2022/08/08 06:22:00;;;;;;;;;;;;;;;;;;4967168;28;19933;-83
2022/08/08 06:24:26;;;;;;;;;;;;;;;;;;4962902;28;20308;-83
2022/08/08 06:26:51;;;;;;;;;;;;;;;;;;4961952;28;19915;-85
2022/08/08 06:29:16;;;;;;;;;;;;;;;;;;4961571;28;19997;-85
2022/08/08 06:31:41;;;;;;;;;;;;;;;;;;4965926;28;21068;-84
2022/08/08 06:34:06;;;;;;;;;;;;;;;;;;4966324;28;19914;-83
2022/08/08 06:36:31;;;;;;;;;;;;;;;;;;4967839;28;20986;-84
2022/08/08 06:38:57;;;;;;;;;;;;;;;;;;4967579;28;19984;-85
2022/08/08 06:41:22;;;;;;;;;;;;;;;;;;4963718;28;19928;-84
2022/08/08 06:43:47;;;;;;;;;;;;;;;;;;4957074;28;19918;-84
2022/08/08 06:46:12;;;;;;;;;;;;;;;;;;4966454;28;19922;-84
2022/08/08 06:48:37;;;;;;;;;;;;;;;;;;4963779;28;19918;-84
2022/08/08 06:51:03;;;;;;;;;;;;;;;;;;4963763;28;19926;-85
2022/08/08 06:53:28;;;;;;;;;;;;;;;;;;4958835;28;20005;-84
2022/08/08 06:55:53;;;;;;;;;;;;;;;;;;4960001;28;20466;-84
2022/08/08 06:58:18;;;;;;;;;;;;;;;;;;4959397;28;19965;-85
2022/08/08 07:00:44;;;;;;;;;;;;;;;;;;4958370;28;19918;-86
2022/08/08 07:03:09;;;;;;;;;;;;;;;;;;4963348;28;19928;-85
2022/08/08 07:05:34;;;;;;;;;;;;;;;;;;4961014;28;20311;-85
2022/08/08 07:08:00;;;;;;;;;;;;;;;;;;4959726;28;19938;-85
2022/08/08 07:10:25;;;;;;;;;;;;;;;;;;4960841;28;19981;-85
2022/08/08 07:12:51;;;;;;;;;;;;;;;;;;4964267;28;19914;-84
2022/08/08 07:15:16;;;;;;;;;;;;;;;;;;4962964;28;19914;-84
2022/08/08 07:17:41;;;;;;;;;;;;;;;;;;4965400;28;19929;-85
2022/08/08 07:20:07;;;;;;;;;;;;;;;;;;4967589;28;19915;-85
2022/08/08 07:22:32;;;;;;;;;;;;;;;;;;4962423;28;19914;-84
2022/08/08 07:24:58;;;;;;;;;;;;;;;;;;4963699;28;19922;-84
2022/08/08 07:27:23;;;;;;;;;;;;;;;;;;4961490;28;20510;-85
2022/08/08 07:29:48;;;;;;;;;;;;;;;;;;4965231;28;19922;-84
2022/08/08 07:32:13;;;;;;;;;;;;;;;;;;4967431;28;19937;-84
2022/08/08 07:34:39;;;;;;;;;;;;;;;;;;4958326;28;20041;-85
2022/08/08 07:37:04;;;;;;;;;;;;;;;;;;4966895;28;19919;-85
2022/08/08 07:39:29;;;;;;;;;;;;;;;;;;4961282;28;19921;-85
2022/08/08 07:41:54;;;;;;;;;;;;;;;;;;4962856;28;20009;-85
2022/08/08 07:44:19;;;;;;;;;;;;;;;;;;4958363;28;19922;-86
2022/08/08 07:46:44;;;;;;;;;;;;;;;;;;4969171;28;19961;-85
2022/08/08 07:49:12;;;;;;;;;;;;;;;;;;4962217;28;20320;-86
2022/08/08 07:51:37;;;;;;;;;;;;;;;;;;4967385;28;19925;-86
2022/08/08 07:54:02;;;;;;;;;;;;;;;;;;4966637;28;19918;-86
2022/08/08 07:56:28;;;;;;;;;;;;;;;;;;4968998;28;19972;-87
2022/08/08 07:58:53;;;;;;;;;;;;;;;;;;4971846;28;19969;-86
2022/08/08 08:01:19;;;;;;;;;;;;;;;;;;4969322;28;19921;-86
2022/08/08 08:03:45;;;;;;;;;;;;;;;;;;4964871;28;20415;-87
2022/08/08 08:06:10;;;;;;;;;;;;;;;;;;4973831;28;19914;-86
2022/08/08 08:08:35;;;;;;;;;;;;;;;;;;4970292;28;19922;-87
2022/08/08 08:11:01;;;;;;;;;;;;;;;;;;4968695;28;19922;-87
2022/08/08 08:13:26;;;;;;;;;;;;;;;;;;4967771;28;19914;-87
2022/08/08 08:15:51;;;;;;;;;;;;;;;;;;4966231;28;20427;-87
2022/08/08 08:18:16;;;;;;;;;;;;;;;;;;4968490;28;19921;-86
2022/08/08 08:20:42;;;;;;;;;;;;;;;;;;4964897;28;19929;-87
2022/08/08 08:23:16;;;;;;;;;;;;;;;;;;4969671;28;20005;-87
2022/08/08 08:25:41;;;;;;;;;;;;;;;;;;4966234;28;19918;-87
2022/08/08 08:28:06;;;;;;;;;;;;;;;;;;4968423;28;19920;-87
2022/08/08 08:30:32;;;;;;;;;;;;;;;;;;4968079;28;20056;-86
2022/08/08 08:32:57;;;;;;;;;;;;;;;;;;4971985;28;19930;-86
2022/08/08 08:35:22;;;;;;;;;;;;;;;;;;4971579;28;19914;-88
2022/08/08 08:37:47;;;;;;;;;;;;;;;;;;4965280;28;19965;-86
2022/08/08 08:40:13;;;;;;;;;;;;;;;;;;4967282;28;19922;-87
2022/08/08 08:42:38;;;;;;;;;;;;;;;;;;4969544;28;19918;-86
2022/08/08 08:45:03;;;;;;;;;;;;;;;;;;4972011;28;20490;-87
2022/08/08 08:47:28;;;;;;;;;;;;;;;;;;4966753;28;19926;-85
2022/08/08 08:49:53;;;;;;;;;;;;;;;;;;4968455;28;19914;-87
2022/08/08 08:52:21;;;;;;;;;;;;;;;;;;4972575;28;19938;-86
2022/08/08 08:54:46;;;;;;;;;;;;;;;;;;4967189;28;19965;-88
2022/08/08 08:57:11;;;;;;;;;;;;;;;;;;4974568;28;19914;-86
2022/08/08 08:59:36;;;;;;;;;;;;;;;;;;4971105;28;19914;-85
2022/08/08 09:02:01;;;;;;;;;;;;;;;;;;4966095;28;19918;-87
2022/08/08 09:04:29;;;;;;;;;;;;;;;;;;4969005;28;20284;-87
2022/08/08 09:07:00;;;;;;;;;;;;;;;;;;4969673;28;19929;-87
2022/08/08 09:09:25;;;;;;;;;;;;;;;;;;4971476;28;19922;-87
2022/08/08 09:11:51;;;;;;;;;;;;;;;;;;4972546;28;20013;-86
2022/08/08 09:14:16;;;;;;;;;;;;;;;;;;4966470;28;19929;-89
2022/08/08 09:16:41;;;;;;;;;;;;;;;;;;4965516;28;19999;-88
2022/08/08 09:19:06;;;;;;;;;;;;;;;;;;4970409;28;19914;-87
2022/08/08 09:21:31;;;;;;;;;;;;;;;;;;4965469;28;19969;-88
2022/08/08 09:23:57;;;;;;;;;;;;;;;;;;4969209;28;19926;-88
2022/08/08 09:26:22;;;;;;;;;;;;;;;;;;4968932;28;20036;-88
2022/08/08 09:28:48;;;;;;;;;;;;;;;;;;4968791;28;19926;-88
2022/08/08 09:31:13;;;;;;;;;;;;;;;;;;4966022;28;19920;-88
2022/08/08 09:33:39;;;;;;;;;;;;;;;;;;4968754;28;20523;-88
2022/08/08 09:36:04;;;;;;;;;;;;;;;;;;4971680;28;19914;-88
2022/08/08 09:38:30;;;;;;;;;;;;;;;;;;4970827;28;19997;-86
2022/08/08 09:40:55;;;;;;;;;;;;;;;;;;4969250;28;19915;-87
2022/08/08 09:43:20;;;;;;;;;;;;;;;;;;4966579;28;19925;-87
2022/08/08 09:45:45;;;;;;;;;;;;;;;;;;4971085;28;19939;-87
2022/08/08 09:48:19;;;;;;;;;;;;;;;;;;4969245;28;19944;-87
2022/08/08 09:50:45;;;;;;;;;;;;;;;;;;4968909;28;19926;-87
2022/08/08 09:53:10;;;;;;;;;;;;;;;;;;4969675;28;19921;-87
2022/08/08 09:55:35;;;;;;;;;;;;;;;;;;4968559;28;19984;-89
2022/08/08 09:58:00;;;;;;;;;;;;;;;;;;4967981;28;19922;-88
2022/08/08 10:00:26;;;;;;;;;;;;;;;;;;4966311;28;20326;-88
2022/08/08 10:02:51;;;;;;;;;;;;;;;;;;4971379;28;19910;-87
2022/08/08 10:05:16;;;;;;;;;;;;;;;;;;4965825;28;19926;-88
2022/08/08 10:07:41;;;;;;;;;;;;;;;;;;4970379;28;19921;-87
2022/08/08 10:10:06;;;;;;;;;;;;;;;;;;4964589;28;19922;-87
2022/08/08 10:12:31;;;;;;;;;;;;;;;;;;4970828;28;19910;-87
2022/08/08 10:14:57;;;;;;;;;;;;;;;;;;4962674;28;19929;-87
2022/08/08 10:17:22;;;;;;;;;;;;;;;;;;4962958;28;19920;-87
2022/08/08 10:19:47;;;;;;;;;;;;;;;;;;4965924;28;19946;-89
2022/08/08 10:22:18;;;;;;;;;;;;;;;;;;4966385;28;19914;-87
2022/08/08 10:24:44;;;;;;;;;;;;;;;;;;4969232;28;19953;-89
2022/08/08 10:27:12;;;;;;;;;;;;;;;;;;4969166;28;20391;-88
2022/08/08 10:29:44;;;;;;;;;;;;;;;;;;4968744;28;19925;-87
2022/08/08 10:34:57;;;;;;;;;;;;;;;;;;4965817;28;20707;-89
2022/08/08 10:37:24;;;;;;;;;;;;;;;;;;4968056;28;20014;-88
2022/08/08 10:39:50;;;;;;;;;;;;;;;;;;4963759;28;20026;-88
2022/08/08 10:42:15;;;;;;;;;;;;;;;;;;4967879;28;19989;-87
2022/08/08 10:44:42;;;;;;;;;;;;;;;;;;4963818;28;19910;-87
2022/08/08 10:47:07;;;;;;;;;;;;;;;;;;4966169;28;19945;-86
2022/08/08 10:49:33;;;;;;;;;;;;;;;;;;4967757;28;19980;-86
2022/08/08 10:51:58;;;;;;;;;;;;;;;;;;4964959;28;20439;-86
2022/08/08 10:54:26;;;;;;;;;;;;;;;;;;4958144;28;20018;-86
2022/08/08 10:56:54;;;;;;;;;;;;;;;;;;4968251;28;19910;-86
2022/08/08 10:59:22;;;;;;;;;;;;;;;;;;4965284;28;20004;-86
2022/08/08 11:01:47;;;;;;;;;;;;;;;;;;4964768;28;19954;-86
2022/08/08 11:04:21;;;;;;;;;;;;;;;;;;4969191;28;19949;-85
2022/08/08 11:12:17;;;;;;;;;;;;;;;;;;4966065;28;19945;-85
2022/08/08 11:14:44;;;;;;;;;;;;;;;;;;4968297;28;20420;-86
2022/08/08 11:17:09;;;;;;;;;;;;;;;;;;4965336;28;19918;-86
2022/08/08 11:19:35;;;;;;;;;;;;;;;;;;4962831;28;20390;-86
2022/08/08 11:22:00;;;;;;;;;;;;;;;;;;4965539;28;19922;-86
2022/08/08 11:24:33;;;;;;;;;;;;;;;;;;4964473;28;19925;-87
2022/08/08 11:27:01;;;;;;;;;;;;;;;;;;4967096;28;19948;-86
2022/08/08 11:29:29;;;;;;;;;;;;;;;;;;4965403;28;19922;-87
2022/08/08 11:31:57;;;;;;;;;;;;;;;;;;4962082;28;19914;-87
2022/08/08 11:34:25;;;;;;;;;;;;;;;;;;4966317;28;19914;-88
2022/08/08 11:36:54;;;;;;;;;;;;;;;;;;4962002;28;19918;-86
2022/08/08 11:39:19;;;;;;;;;;;;;;;;;;4964232;28;19980;-87
2022/08/08 11:41:51;;;;;;;;;;;;;;;;;;4966203;28;19926;-87
2022/08/08 11:44:19;;;;;;;;;;;;;;;;;;4955571;28;19921;-88
2022/08/08 11:46:47;;;;;;;;;;;;;;;;;;4965744;28;19918;-87
2022/08/08 11:49:12;;;;;;;;;;;;;;;;;;4963864;28;20536;-87
2022/08/08 11:51:39;;;;;;;;;;;;;;;;;;4962116;28;19921;-88
2022/08/08 11:54:07;;;;;;;;;;;;;;;;;;4965166;28;19918;-86
2022/08/08 11:56:37;;;;;;;;;;;;;;;;;;4961796;28;19925;-88
2022/08/08 12:01:50;;;;;;;;;;;;;;;;;;4954805;28;19910;-87
2022/08/08 12:04:15;;;;;;;;;;;;;;;;;;4964766;28;20301;-87
2022/08/08 12:06:41;;;;;;;;;;;;;;;;;;4966289;28;19927;-86
2022/08/08 12:09:06;;;;;;;;;;;;;;;;;;4964424;28;19933;-87
2022/08/08 12:11:31;;;;;;;;;;;;;;;;;;4962742;28;19914;-87
2022/08/08 12:13:57;;;;;;;;;;;;;;;;;;4958573;28;20009;-86
2022/08/08 12:16:22;;;;;;;;;;;;;;;;;;4961897;28;19910;-87
2022/08/08 12:18:47;;;;;;;;;;;;;;;;;;4962080;28;20566;-86
2022/08/08 12:21:12;;;;;;;;;;;;;;;;;;4966164;28;19939;-87
2022/08/08 12:23:40;;;;;;;;;;;;;;;;;;4961768;28;19918;-86
2022/08/08 12:26:05;;;;;;;;;;;;;;;;;;4961092;28;20257;-86
2022/08/08 12:28:30;;;;;;;;;;;;;;;;;;4962933;28;19988;-86
2022/08/08 12:31:02;;;;;;;;;;;;;;;;;;4965547;28;19918;-87
2022/08/08 12:33:31;;;;;;;;;;;;;;;;;;4965260;28;20669;-87
2022/08/08 12:35:59;;;;;;;;;;;;;;;;;;4961915;28;19918;-87
2022/08/08 12:38:26;;;;;;;;;;;;;;;;;;4966732;28;20672;-86
2022/08/08 12:40:54;;;;;;;;;;;;;;;;;;4965580;28;19945;-86
2022/08/08 12:43:19;;;;;;;;;;;;;;;;;;4966945;28;19918;-86
2022/08/08 12:45:47;;;;;;;;;;;;;;;;;;4965646;28;19921;-86
2022/08/08 12:48:12;;;;;;;;;;;;;;;;;;4966551;28;19914;-86
2022/08/08 12:50:37;;;;;;;;;;;;;;;;;;4966957;28;19990;-86
2022/08/08 12:53:03;;;;;;;;;;;;;;;;;;4963213;28;20515;-86
2022/08/08 12:55:28;;;;;;;;;;;;;;;;;;4967436;28;20375;-85
2022/08/08 12:57:53;;;;;;;;;;;;;;;;;;4966140;28;19910;-86
2022/08/08 13:00:18;;;;;;;;;;;;;;;;;;4967971;28;19925;-85
2022/08/08 13:02:44;;;;;;;;;;;;;;;;;;4960041;28;20009;-86
2022/08/08 13:05:09;;;;;;;;;;;;;;;;;;4965922;28;19922;-87
2022/08/08 13:07:34;;;;;;;;;;;;;;;;;;4971634;28;19921;-87
2022/08/08 13:10:00;;;;;;;;;;;;;;;;;;4970514;28;20379;-85
2022/08/08 13:12:25;;;;;;;;;;;;;;;;;;4960863;28;19918;-86
2022/08/08 13:14:51;;;;;;;;;;;;;;;;;;4961555;28;20009;-87
2022/08/08 13:17:17;;;;;;;;;;;;;;;;;;4967231;28;19914;-89
2022/08/08 13:19:42;;;;;;;;;;;;;;;;;;4966819;28;19973;-86
2022/08/08 13:22:07;;;;;;;;;;;;;;;;;;4962348;28;19926;-86
2022/08/08 13:24:35;;;;;;;;;;;;;;;;;;4968226;28;19914;-86
2022/08/08 13:27:13;;;;;;;;;;;;;;;;;;;;;
2022/08/08 13:32:33;;;;;;;;;;;;;;;;;;;;;
2022/08/08 13:34:59;;;;;;;;;;;;;;;;;;4969616;28;19925;-87
2022/08/08 13:37:24;;;;;;;;;;;;;;;;;;4969192;28;19999;-86
2022/08/08 13:40:07;;;;;;;;;;;;;;;;;;4964824;28;20372;-87
2022/08/08 13:42:33;;;;;;;;;;;;;;;;;;4966487;28;19972;-87
2022/08/08 13:45:11;;;;;;;;;;;;;;;;;;;;;
2022/08/08 13:47:38;;;;;;;;;;;;;;;;;;4964133;28;19914;-86
2022/08/08 13:50:04;;;;;;;;;;;;;;;;;;4962287;28;20436;-88
2022/08/08 13:52:31;;;;;;;;;;;;;;;;;;4965116;28;19915;-89
2022/08/08 13:54:56;;;;;;;;;;;;;;;;;;4957416;28;21848;-87
2022/08/08 13:57:27;;;;;;;;;;;;;;;;;;4970662;28;19953;-88
2022/08/08 13:59:55;;;;;;;;;;;;;;;;;;4969689;28;19914;-89
2022/08/08 14:02:33;;;;;;;;;;;;;;;;;;;;;
2022/08/08 14:05:11;;;;;;;;;;;;;;;;;;;;;
2022/08/08 14:07:46;;;;;;;;;;;;;;;;;;4966136;28;19940;-89
2022/08/08 14:13:17;;;;;;;;;;;;;;;;;;4961089;28;19961;-89
2022/08/08 14:15:42;;;;;;;;;;;;;;;;;;4964588;28;19918;-87
2022/08/08 14:18:10;;;;;;;;;;;;;;;;;;4963389;28;19914;-87
2022/08/08 14:20:37;;;;;;;;;;;;;;;;;;4969255;28;20439;-88
2022/08/08 14:25:53;;;;;;;;;;;;;;;;;;4952948;28;21568;-88
2022/08/08 14:28:21;;;;;;;;;;;;;;;;;;4968218;28;19969;-87
2022/08/08 14:30:54;;;;;;;;;;;;;;;;;;4960903;28;19918;-87
2022/08/08 14:33:19;;;;;;;;;;;;;;;;;;4961512;28;19962;-87
2022/08/08 14:40:49;;;;;;;;;;;;;;;;;;4962281;28;20387;-84
2022/08/08 14:48:50;;;;;;;;;;;;;;;;;;4950239;28;19961;-82
2022/08/08 14:51:28;;;;;;;;;;;;;;;;;;;;;
2022/08/08 14:54:20;;;;;;;;;;;;;;;;;;4944309;28;20439;-82
2022/08/08 14:56:47;;;;;;;;;;;;;;;;;;4950313;28;20006;-81
2022/08/08 14:59:13;;;;;;;;;;;;;;;;;;4948696;28;20001;-82
2022/08/08 15:01:40;;;;;;;;;;;;;;;;;;4948432;28;20337;-82
2022/08/08 15:04:07;;;;;;;;;;;;;;;;;;4948571;28;19925;-82
2022/08/08 15:06:33;;;;;;;;;;;;;;;;;;4953470;28;19946;-82
2022/08/08 15:08:58;;;;;;;;;;;;;;;;;;4950799;28;20430;-83
2022/08/08 15:11:26;;;;;;;;;;;;;;;;;;4947021;28;19918;-83
2022/08/08 15:19:27;;;;;;;;;;;;;;;;;;4947005;28;19914;-84
2022/08/08 15:22:02;;;;;;;;;;;;;;;;;;4946662;28;19918;-85
2022/08/08 15:27:15;;;;;;;;;;;;;;;;;;4940266;28;19930;-83
2022/08/08 15:29:40;;;;;;;;;;;;;;;;;;4945897;28;19928;-84
2022/08/08 15:32:12;;;;;;;;;;;;;;;;;;4941652;28;20303;-84
2022/08/08 15:37:44;;;;;;;;;;;;;;;;;;;;;
2022/08/08 15:40:10;;;;;;;;;;;;;;;;;;4948187;28;19919;-82
2022/08/08 15:42:35;;;;;;;;;;;;;;;;;;4947511;28;20447;-82
2022/08/08 15:45:01;;;;;;;;;;;;;;;;;;4950821;28;20307;-82
2022/08/08 15:50:21;;;;;;;;;;;;;;;;;;4966741;28;20020;-84
2022/08/08 15:52:46;;;;;;;;;;;;;;;;;;4950829;28;20384;-84
2022/08/08 15:55:22;;;;;;;;;;;;;;;;;;4946287;28;19950;-83
2022/08/08 15:57:57;;;;;;;;;;;;;;;;;;;;;
2022/08/08 16:00:25;;;;;;;;;;;;;;;;;;4952157;28;19921;-83
2022/08/08 16:02:58;;;;;;;;;;;;;;;;;;4950330;28;19918;-82
2022/08/08 16:05:33;;;;;;;;;;;;;;;;;;;;;
2022/08/08 16:08:04;;;;;;;;;;;;;;;;;;4950666;28;19915;-85
2022/08/08 16:16:20;;;;;;;;;;;;;;;;;;4922349;28;19946;-85
2022/08/08 16:24:36;;;;;;;;;;;;;;;;;;4952413;28;20578;-84
2022/08/08 16:27:06;;;;;;;;;;;;;;;;;;4954607;28;20403;-84
2022/08/08 16:29:32;;;;;;;;;;;;;;;;;;4958952;28;19925;-84
2022/08/08 16:31:57;;;;;;;;;;;;;;;;;;4951766;28;20009;-84
2022/08/08 16:34:24;;;;;;;;;;;;;;;;;;4956180;28;19914;-83
2022/08/08 16:36:49;;;;;;;;;;;;;;;;;;4953570;28;19915;-82
2022/08/08 16:39:16;;;;;;;;;;;;;;;;;;4951092;28;19926;-83
2022/08/08 16:41:42;;;;;;;;;;;;;;;;;;4945345;28;19942;-84
2022/08/08 16:44:07;;;;;;;;;;;;;;;;;;4944530;28;19914;-84
2022/08/08 16:46:35;;;;;;;;;;;;;;;;;;4947088;28;19922;-84
2022/08/08 16:49:03;;;;;;;;;;;;;;;;;;4949135;28;19918;-84
2022/08/08 16:51:31;;;;;;;;;;;;;;;;;;4947272;28;19914;-84
2022/08/08 16:53:56;;;;;;;;;;;;;;;;;;4952439;28;19914;-84
2022/08/08 16:56:21;;;;;;;;;;;;;;;;;;4956884;28;19970;-83
2022/08/08 16:58:51;;;;;;;;;;;;;;;;;;4958111;28;19937;-83
2022/08/08 17:01:20;;;;;;;;;;;;;;;;;;4947982;28;19954;-84
2022/08/08 17:03:58;;;;;;;;;;;;;;;;;;;;;
2022/08/08 17:06:33;;;;;;;;;;;;;;;;;;;;;
2022/08/08 17:08:59;;;;;;;;;;;;;;;;;;4941989;28;19921;-83
2022/08/08 17:11:26;;;;;;;;;;;;;;;;;;4951030;28;19918;-85
2022/08/08 17:13:54;;;;;;;;;;;;;;;;;;4947197;28;20285;-84
2022/08/08 17:16:22;;;;;;;;;;;;;;;;;;4953172;28;20460;-84
2022/08/08 17:19:02;;;;;;;;;;;;;;;;;;4951168;28;19926;-85
2022/08/08 17:21:28;;;;;;;;;;;;;;;;;;4949120;28;20273;-84
2022/08/08 17:23:53;;;;;;;;;;;;;;;;;;4955230;28;20578;-83
2022/08/08 17:26:18;;;;;;;;;;;;;;;;;;4954029;28;19927;-84
2022/08/08 17:28:51;;;;;;;;;;;;;;;;;;4958180;28;19918;-84
2022/08/08 17:31:35;;;;;;;;;;;;;;;;;;4945721;28;19925;-83
2022/08/08 17:34:19;;;;;;;;;;;;;;;;;;4955920;28;19914;-83
2022/08/08 17:39:32;;;;;;;;;;;;;;;;;;4956347;28;19957;-84
2022/08/08 17:41:57;;;;;;;;;;;;;;;;;;4954028;28;19968;-84
2022/08/08 17:44:25;;;;;;;;;;;;;;;;;;4946058;28;20353;-84
2022/08/08 17:47:03;;;;;;;;;;;;;;;;;;;;;
2022/08/08 17:49:38;;;;;;;;;;;;;;;;;;;;;
2022/08/08 17:52:31;;;;;;;;;;;;;;;;;;;;;
2022/08/08 17:54:52;;;;;;;;;;;;;;;;;;4950824;28;19914;-84
2022/08/08 18:05:57;;;;;;;;;;;;;;;;;;4954866;28;19929;-84
2022/08/08 18:08:23;;;;;;;;;;;;;;;;;;4943072;28;19938;-83
2022/08/08 18:10:51;;;;;;;;;;;;;;;;;;4957313;28;19918;-84
2022/08/08 18:18:59;;;;;;;;;;;;;;;;;;4953485;28;19921;-84